Impacts TAF Board INFO
FOR SITUATIONAL AWARENESS. NOT TO BE USED FOR FLIGHT PLANNING PURPOSES.
IDs:

KMIA - Miami Intl, FL, US

Issued at 2329 UTC 25 Feb 2018
Updated at 0146 UTC 26 Feb 2018
Potential Impact None Slight Moderate High
Time0053Z 26/02Z 26/03Z 26/04Z 26/05Z 26/06Z 26/07Z 26/08Z 26/09Z 26/10Z 26/11Z 26/12Z 26/13Z 26/14Z>>
Type OBS PRVL PRVL PRVL PRVL PRVL PRVL PRVL PRVL PRVL PRVL PRVL PRVL PRVL
VIS 10 >6 >6 >6 >6 >6 >6 >6 >6 >6 >6 >6 >6 >6
CIG -- -- -- -- -- -- -- -- -- -- -- -- -- --
Cover FEW FEW FEW FEW FEW FEW FEW FEW FEW FEW FEW FEW FEW FEW
FltCat VFR VFR VFR VFR VFR VFR VFR VFR VFR VFR VFR VFR VFR VFR
WX -- -- -- -- -- -- -- -- -- -- -- -- -- --
WDir 110 VRB VRB VRB VRB VRB VRB VRB VRB VRB VRB VRB VRB VRB
WSpd 10 4 4 4 4 4 4 4 4 4 4 4 4 4
WGst -- -- -- -- -- -- -- -- -- -- -- -- -- --

Raw TAF
KMIA 252329Z 2600/2706 12010KT P6SM FEW030 SCT050
  FM260200 VRB04KT P6SM FEW025
  FM261500 14008KT P6SM SCT030 SCT050
  FM270200 VRB04KT P6SM FEW025


Raw METAR
KMIA 260053Z 11010KT 10SM FEW025 24/20 A3015 RMK AO2 SLP210 T02390200 $
KMIA 252353Z 11013KT 10SM FEW028 FEW045 24/20 A3015 RMK AO2 SLP208 T02440200 10278 20244 53005 $
KMIA 252253Z COR 11010KT 10SM FEW030 FEW045 25/20 A3013 RMK AO2 SLP203 T02500200 $

METAR Board
Radar Display
Forecast Discussion

FOR SITUATIONAL AWARENESS. NOT TO BE USED FOR FLIGHT PLANNING PURPOSES.